sensor_id;sensor_type;location;lat;lon;timestamp;P1;durP1;ratioP1;P2;durP2;ratioP2
15159;SDS011;7680;48.800;9.680;2023-07-28T00:00:16;4.47;;;4.18;;
15159;SDS011;7680;48.800;9.680;2023-07-28T00:05:20;4.32;;;4.03;;
15159;SDS011;7680;48.800;9.680;2023-07-28T00:10:24;4.72;;;4.30;;
15159;SDS011;7680;48.800;9.680;2023-07-28T00:15:27;3.80;;;3.50;;
15159;SDS011;7680;48.800;9.680;2023-07-28T00:20:32;4.00;;;3.70;;
15159;SDS011;7680;48.800;9.680;2023-07-28T00:25:36;4.13;;;3.75;;
15159;SDS011;7680;48.800;9.680;2023-07-28T00:30:39;4.28;;;3.75;;
15159;SDS011;7680;48.800;9.680;2023-07-28T00:35:43;3.90;;;3.60;;
15159;SDS011;7680;48.800;9.680;2023-07-28T00:40:46;4.30;;;3.90;;
15159;SDS011;7680;48.800;9.680;2023-07-28T00:45:49;3.20;;;3.00;;
15159;SDS011;7680;48.800;9.680;2023-07-28T00:50:54;3.65;;;3.45;;
15159;SDS011;7680;48.800;9.680;2023-07-28T00:55:58;4.65;;;4.25;;
15159;SDS011;7680;48.800;9.680;2023-07-28T01:01:03;3.40;;;3.13;;
15159;SDS011;7680;48.800;9.680;2023-07-28T01:06:11;4.45;;;4.05;;
15159;SDS011;7680;48.800;9.680;2023-07-28T01:11:22;4.18;;;3.85;;
15159;SDS011;7680;48.800;9.680;2023-07-28T01:16:25;4.50;;;3.85;;
15159;SDS011;7680;48.800;9.680;2023-07-28T01:21:30;4.05;;;3.70;;
15159;SDS011;7680;48.800;9.680;2023-07-28T01:26:36;4.50;;;4.20;;
15159;SDS011;7680;48.800;9.680;2023-07-28T01:31:39;4.93;;;4.22;;
15159;SDS011;7680;48.800;9.680;2023-07-28T01:36:43;4.20;;;3.90;;
15159;SDS011;7680;48.800;9.680;2023-07-28T01:41:47;4.57;;;4.28;;
15159;SDS011;7680;48.800;9.680;2023-07-28T01:46:50;4.38;;;3.97;;
15159;SDS011;7680;48.800;9.680;2023-07-28T01:51:53;4.80;;;4.40;;
15159;SDS011;7680;48.800;9.680;2023-07-28T01:56:58;4.45;;;4.15;;
15159;SDS011;7680;48.800;9.680;2023-07-28T02:02:01;4.60;;;4.30;;
15159;SDS011;7680;48.800;9.680;2023-07-28T02:07:04;4.55;;;4.20;;
15159;SDS011;7680;48.800;9.680;2023-07-28T02:12:09;5.15;;;4.57;;
15159;SDS011;7680;48.800;9.680;2023-07-28T02:17:12;4.97;;;4.40;;
15159;SDS011;7680;48.800;9.680;2023-07-28T02:22:15;4.93;;;4.53;;
15159;SDS011;7680;48.800;9.680;2023-07-28T02:27:20;5.70;;;5.20;;
15159;SDS011;7680;48.800;9.680;2023-07-28T02:32:23;4.40;;;4.10;;
15159;SDS011;7680;48.800;9.680;2023-07-28T02:37:26;5.10;;;4.70;;
15159;SDS011;7680;48.800;9.680;2023-07-28T02:42:31;5.25;;;4.75;;
15159;SDS011;7680;48.800;9.680;2023-07-28T02:47:35;4.70;;;4.40;;
15159;SDS011;7680;48.800;9.680;2023-07-28T02:52:38;4.90;;;4.50;;
15159;SDS011;7680;48.800;9.680;2023-07-28T02:57:43;5.10;;;4.70;;
15159;SDS011;7680;48.800;9.680;2023-07-28T03:02:46;4.35;;;3.95;;
15159;SDS011;7680;48.800;9.680;2023-07-28T03:07:49;4.90;;;4.50;;
15159;SDS011;7680;48.800;9.680;2023-07-28T03:12:54;4.28;;;3.97;;
15159;SDS011;7680;48.800;9.680;2023-07-28T03:17:58;4.50;;;4.20;;
15159;SDS011;7680;48.800;9.680;2023-07-28T03:23:02;4.90;;;4.47;;
15159;SDS011;7680;48.800;9.680;2023-07-28T03:28:06;4.95;;;4.47;;
15159;SDS011;7680;48.800;9.680;2023-07-28T03:33:09;4.82;;;4.43;;
15159;SDS011;7680;48.800;9.680;2023-07-28T03:38:13;5.18;;;4.72;;
15159;SDS011;7680;48.800;9.680;2023-07-28T03:43:17;4.60;;;4.20;;
15159;SDS011;7680;48.800;9.680;2023-07-28T03:48:20;5.03;;;4.53;;
15159;SDS011;7680;48.800;9.680;2023-07-28T03:53:23;4.95;;;4.45;;
15159;SDS011;7680;48.800;9.680;2023-07-28T03:58:28;5.07;;;4.25;;
15159;SDS011;7680;48.800;9.680;2023-07-28T04:03:32;5.30;;;4.80;;
15159;SDS011;7680;48.800;9.680;2023-07-28T04:08:35;4.82;;;4.45;;
15159;SDS011;7680;48.800;9.680;2023-07-28T04:13:39;4.35;;;4.05;;
15159;SDS011;7680;48.800;9.680;2023-07-28T04:18:42;5.18;;;4.68;;
15159;SDS011;7680;48.800;9.680;2023-07-28T04:23:46;4.88;;;4.47;;
15159;SDS011;7680;48.800;9.680;2023-07-28T04:28:50;5.22;;;4.70;;
15159;SDS011;7680;48.800;9.680;2023-07-28T04:33:53;5.47;;;4.30;;
15159;SDS011;7680;48.800;9.680;2023-07-28T04:38:56;4.75;;;4.45;;
15159;SDS011;7680;48.800;9.680;2023-07-28T04:44:01;5.10;;;4.60;;
15159;SDS011;7680;48.800;9.680;2023-07-28T04:49:04;5.03;;;4.65;;
15159;SDS011;7680;48.800;9.680;2023-07-28T04:54:07;5.30;;;4.90;;
15159;SDS011;7680;48.800;9.680;2023-07-28T04:59:12;4.43;;;4.03;;
15159;SDS011;7680;48.800;9.680;2023-07-28T05:04:15;5.20;;;4.80;;
15159;SDS011;7680;48.800;9.680;2023-07-28T05:09:18;4.68;;;4.28;;
15159;SDS011;7680;48.800;9.680;2023-07-28T05:14:23;5.68;;;5.13;;
15159;SDS011;7680;48.800;9.680;2023-07-28T05:19:26;5.68;;;5.13;;
15159;SDS011;7680;48.800;9.680;2023-07-28T05:24:29;5.45;;;5.05;;
15159;SDS011;7680;48.800;9.680;2023-07-28T05:29:34;5.43;;;4.93;;
15159;SDS011;7680;48.800;9.680;2023-07-28T05:34:37;5.25;;;4.85;;
15159;SDS011;7680;48.800;9.680;2023-07-28T05:39:40;5.88;;;5.38;;
15159;SDS011;7680;48.800;9.680;2023-07-28T05:44:51;5.60;;;5.13;;
15159;SDS011;7680;48.800;9.680;2023-07-28T05:49:56;6.60;;;6.00;;
15159;SDS011;7680;48.800;9.680;2023-07-28T05:55:05;6.55;;;5.32;;
15159;SDS011;7680;48.800;9.680;2023-07-28T06:00:12;5.88;;;5.47;;
15159;SDS011;7680;48.800;9.680;2023-07-28T06:05:19;5.75;;;5.25;;
15159;SDS011;7680;48.800;9.680;2023-07-28T06:10:22;7.35;;;6.45;;
15159;SDS011;7680;48.800;9.680;2023-07-28T06:15:27;7.30;;;6.60;;
15159;SDS011;7680;48.800;9.680;2023-07-28T06:20:36;7.75;;;6.50;;
15159;SDS011;7680;48.800;9.680;2023-07-28T06:25:39;8.45;;;7.60;;
15159;SDS011;7680;48.800;9.680;2023-07-28T06:30:46;7.90;;;7.10;;
15159;SDS011;7680;48.800;9.680;2023-07-28T06:35:50;7.43;;;6.72;;
15159;SDS011;7680;48.800;9.680;2023-07-28T06:40:53;7.53;;;6.78;;
15159;SDS011;7680;48.800;9.680;2023-07-28T06:45:59;7.32;;;6.72;;
15159;SDS011;7680;48.800;9.680;2023-07-28T06:51:02;7.15;;;6.40;;
15159;SDS011;7680;48.800;9.680;2023-07-28T06:56:06;7.40;;;6.80;;
15159;SDS011;7680;48.800;9.680;2023-07-28T07:01:10;7.38;;;6.68;;
15159;SDS011;7680;48.800;9.680;2023-07-28T07:06:14;7.72;;;6.97;;
15159;SDS011;7680;48.800;9.680;2023-07-28T07:11:18;7.10;;;6.43;;
15159;SDS011;7680;48.800;9.680;2023-07-28T07:16:23;8.05;;;7.35;;
15159;SDS011;7680;48.800;9.680;2023-07-28T07:21:26;8.65;;;7.15;;
15159;SDS011;7680;48.800;9.680;2023-07-28T07:26:31;7.97;;;7.20;;
15159;SDS011;7680;48.800;9.680;2023-07-28T07:31:38;7.55;;;6.72;;
15159;SDS011;7680;48.800;9.680;2023-07-28T07:36:48;7.93;;;6.93;;
15159;SDS011;7680;48.800;9.680;2023-07-28T07:41:52;8.90;;;7.07;;
15159;SDS011;7680;48.800;9.680;2023-07-28T07:46:58;7.90;;;7.05;;
15159;SDS011;7680;48.800;9.680;2023-07-28T07:52:03;7.60;;;6.20;;
15159;SDS011;7680;48.800;9.680;2023-07-28T07:57:08;6.38;;;5.82;;
15159;SDS011;7680;48.800;9.680;2023-07-28T08:02:13;6.85;;;6.25;;
15159;SDS011;7680;48.800;9.680;2023-07-28T08:07:16;6.95;;;5.80;;
15159;SDS011;7680;48.800;9.680;2023-07-28T08:12:20;7.20;;;6.43;;
15159;SDS011;7680;48.800;9.680;2023-07-28T08:17:25;6.88;;;6.28;;
15159;SDS011;7680;48.800;9.680;2023-07-28T08:22:28;6.47;;;5.57;;
15159;SDS011;7680;48.800;9.680;2023-07-28T08:27:31;6.07;;;5.55;;
15159;SDS011;7680;48.800;9.680;2023-07-28T08:32:36;6.15;;;5.57;;
15159;SDS011;7680;48.800;9.680;2023-07-28T08:37:40;7.47;;;6.75;;
15159;SDS011;7680;48.800;9.680;2023-07-28T08:42:43;7.28;;;6.65;;
15159;SDS011;7680;48.800;9.680;2023-07-28T08:47:48;7.10;;;6.40;;
15159;SDS011;7680;48.800;9.680;2023-07-28T08:52:51;7.00;;;6.38;;
15159;SDS011;7680;48.800;9.680;2023-07-28T08:57:55;6.90;;;6.30;;
15159;SDS011;7680;48.800;9.680;2023-07-28T09:03:00;6.07;;;5.57;;
15159;SDS011;7680;48.800;9.680;2023-07-28T09:08:03;6.03;;;5.43;;
15159;SDS011;7680;48.800;9.680;2023-07-28T09:13:08;7.00;;;6.40;;
15159;SDS011;7680;48.800;9.680;2023-07-28T09:18:17;7.18;;;6.47;;
15159;SDS011;7680;48.800;9.680;2023-07-28T09:23:27;6.28;;;5.78;;
15159;SDS011;7680;48.800;9.680;2023-07-28T09:28:37;6.05;;;5.45;;
15159;SDS011;7680;48.800;9.680;2023-07-28T09:33:44;5.40;;;4.82;;
15159;SDS011;7680;48.800;9.680;2023-07-28T09:38:48;5.30;;;4.80;;
15159;SDS011;7680;48.800;9.680;2023-07-28T09:43:52;4.97;;;4.57;;
15159;SDS011;7680;48.800;9.680;2023-07-28T09:48:58;5.15;;;4.75;;
15159;SDS011;7680;48.800;9.680;2023-07-28T09:54:04;4.50;;;4.18;;
15159;SDS011;7680;48.800;9.680;2023-07-28T09:59:16;4.10;;;3.80;;
15159;SDS011;7680;48.800;9.680;2023-07-28T10:04:21;4.30;;;4.00;;
15159;SDS011;7680;48.800;9.680;2023-07-28T10:09:25;5.35;;;3.65;;
15159;SDS011;7680;48.800;9.680;2023-07-28T10:14:34;4.07;;;3.78;;
15159;SDS011;7680;48.800;9.680;2023-07-28T10:19:40;3.80;;;3.50;;
15159;SDS011;7680;48.800;9.680;2023-07-28T10:24:50;3.92;;;3.53;;
15159;SDS011;7680;48.800;9.680;2023-07-28T10:29:58;3.70;;;3.50;;
15159;SDS011;7680;48.800;9.680;2023-07-28T10:35:07;3.45;;;3.17;;
15159;SDS011;7680;48.800;9.680;2023-07-28T10:40:26;4.93;;;3.63;;
15159;SDS011;7680;48.800;9.680;2023-07-28T10:45:32;3.40;;;3.10;;
15159;SDS011;7680;48.800;9.680;2023-07-28T10:50:37;3.88;;;3.58;;
15159;SDS011;7680;48.800;9.680;2023-07-28T10:55:40;3.25;;;2.95;;
15159;SDS011;7680;48.800;9.680;2023-07-28T11:00:43;3.58;;;3.28;;
15159;SDS011;7680;48.800;9.680;2023-07-28T11:05:49;3.28;;;3.00;;
15159;SDS011;7680;48.800;9.680;2023-07-28T11:10:52;3.35;;;3.08;;
15159;SDS011;7680;48.800;9.680;2023-07-28T11:15:57;3.00;;;2.80;;
15159;SDS011;7680;48.800;9.680;2023-07-28T11:21:01;3.10;;;2.83;;
15159;SDS011;7680;48.800;9.680;2023-07-28T11:26:05;3.05;;;2.80;;
15159;SDS011;7680;48.800;9.680;2023-07-28T11:31:12;3.47;;;3.00;;
15159;SDS011;7680;48.800;9.680;2023-07-28T11:36:22;3.17;;;2.95;;
15159;SDS011;7680;48.800;9.680;2023-07-28T11:41:26;3.08;;;2.78;;
15159;SDS011;7680;48.800;9.680;2023-07-28T11:46:33;4.03;;;3.40;;
15159;SDS011;7680;48.800;9.680;2023-07-28T11:51:40;3.05;;;2.78;;
15159;SDS011;7680;48.800;9.680;2023-07-28T11:56:46;2.70;;;2.50;;
15159;SDS011;7680;48.800;9.680;2023-07-28T12:01:51;3.08;;;2.53;;
15159;SDS011;7680;48.800;9.680;2023-07-28T12:07:07;3.53;;;2.78;;
15159;SDS011;7680;48.800;9.680;2023-07-28T12:12:13;2.50;;;2.30;;
15159;SDS011;7680;48.800;9.680;2023-07-28T12:17:21;2.40;;;2.20;;
15159;SDS011;7680;48.800;9.680;2023-07-28T12:22:48;2.17;;;2.00;;
15159;SDS011;7680;48.800;9.680;2023-07-28T12:27:52;2.30;;;2.10;;
15159;SDS011;7680;48.800;9.680;2023-07-28T12:32:55;2.00;;;1.83;;
15159;SDS011;7680;48.800;9.680;2023-07-28T12:38:03;1.88;;;1.77;;
15159;SDS011;7680;48.800;9.680;2023-07-28T12:43:10;2.15;;;2.05;;
15159;SDS011;7680;48.800;9.680;2023-07-28T12:48:33;2.67;;;2.20;;
15159;SDS011;7680;48.800;9.680;2023-07-28T12:53:49;2.05;;;1.95;;
15159;SDS011;7680;48.800;9.680;2023-07-28T12:58:53;2.45;;;2.25;;
15159;SDS011;7680;48.800;9.680;2023-07-28T13:03:59;2.95;;;2.75;;
15159;SDS011;7680;48.800;9.680;2023-07-28T13:09:04;2.97;;;2.78;;
15159;SDS011;7680;48.800;9.680;2023-07-28T13:14:10;4.45;;;2.95;;
15159;SDS011;7680;48.800;9.680;2023-07-28T13:19:13;2.85;;;2.65;;
15159;SDS011;7680;48.800;9.680;2023-07-28T13:24:18;3.10;;;2.80;;
15159;SDS011;7680;48.800;9.680;2023-07-28T13:29:21;3.08;;;2.70;;
15159;SDS011;7680;48.800;9.680;2023-07-28T13:34:24;3.45;;;3.15;;
15159;SDS011;7680;48.800;9.680;2023-07-28T13:39:29;3.13;;;2.38;;
15159;SDS011;7680;48.800;9.680;2023-07-28T13:44:32;2.78;;;2.53;;
15159;SDS011;7680;48.800;9.680;2023-07-28T13:49:35;2.72;;;2.53;;
15159;SDS011;7680;48.800;9.680;2023-07-28T13:54:53;2.65;;;2.45;;
15159;SDS011;7680;48.800;9.680;2023-07-28T13:59:59;2.30;;;2.20;;
15159;SDS011;7680;48.800;9.680;2023-07-28T14:05:02;3.75;;;2.90;;
15159;SDS011;7680;48.800;9.680;2023-07-28T14:10:08;3.95;;;3.30;;
15159;SDS011;7680;48.800;9.680;2023-07-28T14:15:12;3.65;;;3.33;;
15159;SDS011;7680;48.800;9.680;2023-07-28T14:20:15;3.75;;;3.45;;
15159;SDS011;7680;48.800;9.680;2023-07-28T14:25:20;3.67;;;3.38;;
15159;SDS011;7680;48.800;9.680;2023-07-28T14:30:23;4.10;;;3.70;;
15159;SDS011;7680;48.800;9.680;2023-07-28T14:35:26;3.85;;;3.55;;
15159;SDS011;7680;48.800;9.680;2023-07-28T14:40:31;5.05;;;3.80;;
15159;SDS011;7680;48.800;9.680;2023-07-28T14:45:34;3.63;;;3.33;;
15159;SDS011;7680;48.800;9.680;2023-07-28T14:50:37;4.80;;;4.35;;
15159;SDS011;7680;48.800;9.680;2023-07-28T14:55:42;4.05;;;3.65;;
15159;SDS011;7680;48.800;9.680;2023-07-28T15:00:46;4.53;;;3.90;;
15159;SDS011;7680;48.800;9.680;2023-07-28T15:05:49;4.82;;;3.95;;
15159;SDS011;7680;48.800;9.680;2023-07-28T15:10:53;4.63;;;4.20;;
15159;SDS011;7680;48.800;9.680;2023-07-28T15:15:58;4.63;;;4.18;;
15159;SDS011;7680;48.800;9.680;2023-07-28T15:21:02;7.60;;;4.70;;
15159;SDS011;7680;48.800;9.680;2023-07-28T15:26:07;5.95;;;5.45;;
15159;SDS011;7680;48.800;9.680;2023-07-28T15:31:10;5.50;;;4.70;;
15159;SDS011;7680;48.800;9.680;2023-07-28T15:36:13;4.70;;;4.05;;
15159;SDS011;7680;48.800;9.680;2023-07-28T15:41:18;3.80;;;3.47;;
15159;SDS011;7680;48.800;9.680;2023-07-28T15:46:21;3.47;;;3.20;;
15159;SDS011;7680;48.800;9.680;2023-07-28T15:51:25;4.68;;;4.28;;
15159;SDS011;7680;48.800;9.680;2023-07-28T15:56:29;5.57;;;4.05;;
15159;SDS011;7680;48.800;9.680;2023-07-28T16:01:32;4.70;;;4.25;;
15159;SDS011;7680;48.800;9.680;2023-07-28T16:06:36;4.53;;;4.13;;
15159;SDS011;7680;48.800;9.680;2023-07-28T16:11:40;4.32;;;4.03;;
15159;SDS011;7680;48.800;9.680;2023-07-28T16:16:44;4.40;;;4.10;;
15159;SDS011;7680;48.800;9.680;2023-07-28T16:21:47;4.25;;;3.88;;
15159;SDS011;7680;48.800;9.680;2023-07-28T16:26:52;4.60;;;4.20;;
15159;SDS011;7680;48.800;9.680;2023-07-28T16:31:56;4.57;;;4.18;;
15159;SDS011;7680;48.800;9.680;2023-07-28T16:36:59;4.60;;;4.20;;
15159;SDS011;7680;48.800;9.680;2023-07-28T16:42:04;4.65;;;4.25;;
15159;SDS011;7680;48.800;9.680;2023-07-28T16:47:09;4.82;;;4.35;;
15159;SDS011;7680;48.800;9.680;2023-07-28T16:52:13;4.55;;;4.15;;
15159;SDS011;7680;48.800;9.680;2023-07-28T16:57:17;5.93;;;4.30;;
15159;SDS011;7680;48.800;9.680;2023-07-28T17:02:20;4.95;;;4.55;;
15159;SDS011;7680;48.800;9.680;2023-07-28T17:07:24;4.35;;;4.00;;
15159;SDS011;7680;48.800;9.680;2023-07-28T17:12:28;4.90;;;4.40;;
15159;SDS011;7680;48.800;9.680;2023-07-28T17:17:32;5.63;;;4.90;;
15159;SDS011;7680;48.800;9.680;2023-07-28T17:22:35;5.38;;;4.90;;
15159;SDS011;7680;48.800;9.680;2023-07-28T17:27:39;5.63;;;5.18;;
15159;SDS011;7680;48.800;9.680;2023-07-28T17:32:42;5.75;;;5.15;;
15159;SDS011;7680;48.800;9.680;2023-07-28T17:37:46;5.82;;;5.28;;
15159;SDS011;7680;48.800;9.680;2023-07-28T17:42:52;6.20;;;5.70;;
15159;SDS011;7680;48.800;9.680;2023-07-28T17:47:55;5.70;;;5.30;;
15159;SDS011;7680;48.800;9.680;2023-07-28T17:52:58;5.47;;;5.07;;
15159;SDS011;7680;48.800;9.680;2023-07-28T17:58:03;6.80;;;6.20;;
15159;SDS011;7680;48.800;9.680;2023-07-28T18:03:06;6.10;;;5.60;;
15159;SDS011;7680;48.800;9.680;2023-07-28T18:08:09;6.72;;;6.13;;
15159;SDS011;7680;48.800;9.680;2023-07-28T18:13:15;7.35;;;6.63;;
15159;SDS011;7680;48.800;9.680;2023-07-28T18:18:18;5.70;;;5.30;;
15159;SDS011;7680;48.800;9.680;2023-07-28T18:23:21;6.10;;;5.60;;
15159;SDS011;7680;48.800;9.680;2023-07-28T18:28:26;7.10;;;6.40;;
15159;SDS011;7680;48.800;9.680;2023-07-28T18:33:30;6.53;;;5.90;;
15159;SDS011;7680;48.800;9.680;2023-07-28T18:38:33;7.05;;;6.40;;
15159;SDS011;7680;48.800;9.680;2023-07-28T18:43:37;5.95;;;5.32;;
15159;SDS011;7680;48.800;9.680;2023-07-28T18:48:41;6.60;;;6.00;;
15159;SDS011;7680;48.800;9.680;2023-07-28T18:53:44;5.50;;;4.97;;
15159;SDS011;7680;48.800;9.680;2023-07-28T18:58:48;6.00;;;5.50;;
15159;SDS011;7680;48.800;9.680;2023-07-28T19:03:52;6.47;;;5.97;;
15159;SDS011;7680;48.800;9.680;2023-07-28T19:08:55;7.22;;;6.60;;
15159;SDS011;7680;48.800;9.680;2023-07-28T19:13:59;8.75;;;6.13;;
15159;SDS011;7680;48.800;9.680;2023-07-28T19:19:03;6.45;;;5.95;;
15159;SDS011;7680;48.800;9.680;2023-07-28T19:24:06;8.55;;;7.80;;
15159;SDS011;7680;48.800;9.680;2023-07-28T19:29:10;8.85;;;8.05;;
15159;SDS011;7680;48.800;9.680;2023-07-28T19:34:15;7.10;;;6.50;;
15159;SDS011;7680;48.800;9.680;2023-07-28T19:39:19;8.05;;;7.28;;
15159;SDS011;7680;48.800;9.680;2023-07-28T19:44:24;8.10;;;7.40;;
15159;SDS011;7680;48.800;9.680;2023-07-28T19:49:41;6.75;;;6.05;;
15159;SDS011;7680;48.800;9.680;2023-07-28T19:54:48;6.72;;;6.20;;
15159;SDS011;7680;48.800;9.680;2023-07-28T19:59:53;7.88;;;7.18;;
15159;SDS011;7680;48.800;9.680;2023-07-28T20:04:57;7.80;;;7.10;;
15159;SDS011;7680;48.800;9.680;2023-07-28T20:10:00;8.23;;;7.43;;
15159;SDS011;7680;48.800;9.680;2023-07-28T20:15:06;8.98;;;8.10;;
15159;SDS011;7680;48.800;9.680;2023-07-28T20:20:11;8.75;;;7.95;;
15159;SDS011;7680;48.800;9.680;2023-07-28T20:25:14;8.68;;;7.97;;
15159;SDS011;7680;48.800;9.680;2023-07-28T20:30:19;8.68;;;7.72;;
15159;SDS011;7680;48.800;9.680;2023-07-28T20:35:22;8.68;;;7.88;;
15159;SDS011;7680;48.800;9.680;2023-07-28T20:40:26;8.35;;;7.65;;
15159;SDS011;7680;48.800;9.680;2023-07-28T20:45:31;8.70;;;7.80;;
15159;SDS011;7680;48.800;9.680;2023-07-28T20:50:34;9.63;;;8.68;;
15159;SDS011;7680;48.800;9.680;2023-07-28T20:55:37;7.95;;;7.22;;
15159;SDS011;7680;48.800;9.680;2023-07-28T21:00:41;9.07;;;7.93;;
15159;SDS011;7680;48.800;9.680;2023-07-28T21:05:45;10.13;;;7.90;;
15159;SDS011;7680;48.800;9.680;2023-07-28T21:10:48;9.18;;;7.60;;
15159;SDS011;7680;48.800;9.680;2023-07-28T21:15:56;8.68;;;7.28;;
15159;SDS011;7680;48.800;9.680;2023-07-28T21:21:01;6.68;;;6.07;;
15159;SDS011;7680;48.800;9.680;2023-07-28T21:26:04;7.97;;;6.47;;
15159;SDS011;7680;48.800;9.680;2023-07-28T21:31:09;6.57;;;5.97;;
15159;SDS011;7680;48.800;9.680;2023-07-28T21:36:12;6.63;;;6.05;;
15159;SDS011;7680;48.800;9.680;2023-07-28T21:41:17;6.90;;;6.30;;
15159;SDS011;7680;48.800;9.680;2023-07-28T21:46:22;5.55;;;5.05;;
15159;SDS011;7680;48.800;9.680;2023-07-28T21:51:25;6.82;;;5.75;;
15159;SDS011;7680;48.800;9.680;2023-07-28T21:56:29;5.90;;;5.45;;
15159;SDS011;7680;48.800;9.680;2023-07-28T22:01:33;4.90;;;4.50;;
15159;SDS011;7680;48.800;9.680;2023-07-28T22:06:37;5.65;;;5.18;;
15159;SDS011;7680;48.800;9.680;2023-07-28T22:11:40;6.05;;;5.55;;
15159;SDS011;7680;48.800;9.680;2023-07-28T22:16:45;5.78;;;5.28;;
15159;SDS011;7680;48.800;9.680;2023-07-28T22:21:48;7.35;;;5.18;;
15159;SDS011;7680;48.800;9.680;2023-07-28T22:26:51;5.90;;;5.40;;
15159;SDS011;7680;48.800;9.680;2023-07-28T22:31:56;6.30;;;5.70;;
15159;SDS011;7680;48.800;9.680;2023-07-28T22:36:59;6.28;;;5.18;;
15159;SDS011;7680;48.800;9.680;2023-07-28T22:42:02;5.72;;;5.22;;
15159;SDS011;7680;48.800;9.680;2023-07-28T22:47:07;5.78;;;5.07;;
15159;SDS011;7680;48.800;9.680;2023-07-28T22:52:10;7.20;;;5.10;;
15159;SDS011;7680;48.800;9.680;2023-07-28T22:57:13;5.43;;;5.03;;
15159;SDS011;7680;48.800;9.680;2023-07-28T23:02:18;4.88;;;4.40;;
15159;SDS011;7680;48.800;9.680;2023-07-28T23:07:21;4.88;;;4.38;;
15159;SDS011;7680;48.800;9.680;2023-07-28T23:12:24;4.32;;;4.03;;
15159;SDS011;7680;48.800;9.680;2023-07-28T23:17:29;4.88;;;4.50;;
15159;SDS011;7680;48.800;9.680;2023-07-28T23:22:32;4.75;;;4.30;;
15159;SDS011;7680;48.800;9.680;2023-07-28T23:27:35;4.95;;;4.50;;
15159;SDS011;7680;48.800;9.680;2023-07-28T23:32:40;3.92;;;3.63;;
15159;SDS011;7680;48.800;9.680;2023-07-28T23:37:43;3.65;;;3.45;;
15159;SDS011;7680;48.800;9.680;2023-07-28T23:42:47;4.05;;;3.75;;
15159;SDS011;7680;48.800;9.680;2023-07-28T23:47:55;4.00;;;3.70;;
15159;SDS011;7680;48.800;9.680;2023-07-28T23:52:58;3.75;;;3.42;;
15159;SDS011;7680;48.800;9.680;2023-07-28T23:58:01;4.05;;;3.65;;
